sensor_id;sensor_type;location;lat;lon;timestamp;temperature;humidity
1129;DHT22;553;51.038;7.216;2023-02-22T00:00:41;5.90;99.90
1129;DHT22;553;51.038;7.216;2023-02-22T00:03:11;5.80;99.90
1129;DHT22;553;51.038;7.216;2023-02-22T00:05:42;5.80;99.90
1129;DHT22;553;51.038;7.216;2023-02-22T00:08:13;5.80;99.90
1129;DHT22;553;51.038;7.216;2023-02-22T00:10:41;5.80;99.90
1129;DHT22;553;51.038;7.216;2023-02-22T00:13:09;5.80;99.90
1129;DHT22;553;51.038;7.216;2023-02-22T00:15:37;5.80;99.90
1129;DHT22;553;51.038;7.216;2023-02-22T00:18:13;5.80;99.90
1129;DHT22;553;51.038;7.216;2023-02-22T00:20:40;5.80;99.90
1129;DHT22;553;51.038;7.216;2023-02-22T00:23:12;5.80;99.90
1129;DHT22;553;51.038;7.216;2023-02-22T00:25:39;5.80;99.90
1129;DHT22;553;51.038;7.216;2023-02-22T00:28:06;5.80;99.90
1129;DHT22;553;51.038;7.216;2023-02-22T00:30:33;5.90;99.90
1129;DHT22;553;51.038;7.216;2023-02-22T00:33:00;5.90;99.90
1129;DHT22;553;51.038;7.216;2023-02-22T00:35:29;5.90;99.90
1129;DHT22;553;51.038;7.216;2023-02-22T00:38:01;6.00;99.90
1129;DHT22;553;51.038;7.216;2023-02-22T00:40:31;6.00;99.90
1129;DHT22;553;51.038;7.216;2023-02-22T00:42:59;6.10;99.90
1129;DHT22;553;51.038;7.216;2023-02-22T00:45:28;6.10;99.90
1129;DHT22;553;51.038;7.216;2023-02-22T00:47:56;6.10;99.90
1129;DHT22;553;51.038;7.216;2023-02-22T00:50:25;6.10;99.90
1129;DHT22;553;51.038;7.216;2023-02-22T00:52:52;6.20;99.90
1129;DHT22;553;51.038;7.216;2023-02-22T00:55:25;6.10;99.90
1129;DHT22;553;51.038;7.216;2023-02-22T00:57:53;6.20;99.90
1129;DHT22;553;51.038;7.216;2023-02-22T01:00:27;6.20;99.90
1129;DHT22;553;51.038;7.216;2023-02-22T01:02:54;6.20;99.90
1129;DHT22;553;51.038;7.216;2023-02-22T01:05:24;6.20;99.90
1129;DHT22;553;51.038;7.216;2023-02-22T01:07:53;6.20;99.90
1129;DHT22;553;51.038;7.216;2023-02-22T01:10:25;6.20;99.90
1129;DHT22;553;51.038;7.216;2023-02-22T01:12:52;6.20;99.90
1129;DHT22;553;51.038;7.216;2023-02-22T01:15:22;6.20;99.90
1129;DHT22;553;51.038;7.216;2023-02-22T01:17:51;6.20;99.90
1129;DHT22;553;51.038;7.216;2023-02-22T01:20:20;6.20;99.90
1129;DHT22;553;51.038;7.216;2023-02-22T01:22:57;6.30;99.90
1129;DHT22;553;51.038;7.216;2023-02-22T01:25:27;6.30;99.90
1129;DHT22;553;51.038;7.216;2023-02-22T01:27:55;6.20;99.90
1129;DHT22;553;51.038;7.216;2023-02-22T01:30:26;6.30;99.90
1129;DHT22;553;51.038;7.216;2023-02-22T01:32:54;6.30;99.90
1129;DHT22;553;51.038;7.216;2023-02-22T01:35:24;6.30;99.90
1129;DHT22;553;51.038;7.216;2023-02-22T01:37:51;6.40;99.90
1129;DHT22;553;51.038;7.216;2023-02-22T01:40:25;6.40;99.90
1129;DHT22;553;51.038;7.216;2023-02-22T01:42:56;6.40;99.90
1129;DHT22;553;51.038;7.216;2023-02-22T01:50:39;6.40;99.90
1129;DHT22;553;51.038;7.216;2023-02-22T01:53:09;6.40;99.90
1129;DHT22;553;51.038;7.216;2023-02-22T01:55:37;6.40;99.90
1129;DHT22;553;51.038;7.216;2023-02-22T01:58:05;6.30;99.90
1129;DHT22;553;51.038;7.216;2023-02-22T02:00:32;6.30;99.90
1129;DHT22;553;51.038;7.216;2023-02-22T02:03:06;6.30;99.90
1129;DHT22;553;51.038;7.216;2023-02-22T02:05:35;6.30;99.90
1129;DHT22;553;51.038;7.216;2023-02-22T02:10:54;6.40;99.90
1129;DHT22;553;51.038;7.216;2023-02-22T02:13:22;6.40;99.90
1129;DHT22;553;51.038;7.216;2023-02-22T02:15:53;6.40;99.90
1129;DHT22;553;51.038;7.216;2023-02-22T02:18:22;6.40;99.90
1129;DHT22;553;51.038;7.216;2023-02-22T02:23:45;6.40;99.90
1129;DHT22;553;51.038;7.216;2023-02-22T02:32:15;6.40;99.90
1129;DHT22;553;51.038;7.216;2023-02-22T02:35:10;6.40;99.90
1129;DHT22;553;51.038;7.216;2023-02-22T02:40:38;6.40;99.90
1129;DHT22;553;51.038;7.216;2023-02-22T02:43:26;6.40;99.90
1129;DHT22;553;51.038;7.216;2023-02-22T02:46:01;6.40;99.90
1129;DHT22;553;51.038;7.216;2023-02-22T02:48:32;6.50;99.90
1129;DHT22;553;51.038;7.216;2023-02-22T02:51:04;6.50;99.90
1129;DHT22;553;51.038;7.216;2023-02-22T02:53:38;6.50;99.90
1129;DHT22;553;51.038;7.216;2023-02-22T02:56:07;6.50;99.90
1129;DHT22;553;51.038;7.216;2023-02-22T02:58:47;6.50;99.90
1129;DHT22;553;51.038;7.216;2023-02-22T03:01:44;6.50;99.90
1129;DHT22;553;51.038;7.216;2023-02-22T03:04:40;6.50;99.90
1129;DHT22;553;51.038;7.216;2023-02-22T03:07:35;6.50;99.90
1129;DHT22;553;51.038;7.216;2023-02-22T03:10:31;6.40;99.90
1129;DHT22;553;51.038;7.216;2023-02-22T03:21:14;6.40;99.90
1129;DHT22;553;51.038;7.216;2023-02-22T03:26:42;6.40;99.90
1129;DHT22;553;51.038;7.216;2023-02-22T03:29:13;6.40;99.90
1129;DHT22;553;51.038;7.216;2023-02-22T03:31:47;6.40;99.90
1129;DHT22;553;51.038;7.216;2023-02-22T03:34:25;6.40;99.90
1129;DHT22;553;51.038;7.216;2023-02-22T03:37:00;6.40;99.90
1129;DHT22;553;51.038;7.216;2023-02-22T03:39:28;6.40;99.90
1129;DHT22;553;51.038;7.216;2023-02-22T03:42:08;6.30;99.90
1129;DHT22;553;51.038;7.216;2023-02-22T03:44:39;6.40;99.90
1129;DHT22;553;51.038;7.216;2023-02-22T03:47:10;6.30;99.90
1129;DHT22;553;51.038;7.216;2023-02-22T03:49:50;6.30;99.90
1129;DHT22;553;51.038;7.216;2023-02-22T03:52:19;6.30;99.90
1129;DHT22;553;51.038;7.216;2023-02-22T03:54:50;6.30;99.90
1129;DHT22;553;51.038;7.216;2023-02-22T03:57:27;6.20;99.90
1129;DHT22;553;51.038;7.216;2023-02-22T04:00:06;6.30;99.90
1129;DHT22;553;51.038;7.216;2023-02-22T04:02:40;6.40;99.90
1129;DHT22;553;51.038;7.216;2023-02-22T04:05:11;6.30;99.90
1129;DHT22;553;51.038;7.216;2023-02-22T04:07:41;6.30;99.90
1129;DHT22;553;51.038;7.216;2023-02-22T04:10:10;6.40;99.90
1129;DHT22;553;51.038;7.216;2023-02-22T04:12:38;6.40;99.90
1129;DHT22;553;51.038;7.216;2023-02-22T04:15:08;6.40;99.90
1129;DHT22;553;51.038;7.216;2023-02-22T04:17:35;6.50;99.90
1129;DHT22;553;51.038;7.216;2023-02-22T04:20:03;6.50;99.90
1129;DHT22;553;51.038;7.216;2023-02-22T04:22:42;6.40;99.90
1129;DHT22;553;51.038;7.216;2023-02-22T04:25:08;6.40;99.90
1129;DHT22;553;51.038;7.216;2023-02-22T04:27:35;6.40;99.90
1129;DHT22;553;51.038;7.216;2023-02-22T04:30:03;6.50;99.90
1129;DHT22;553;51.038;7.216;2023-02-22T04:32:31;6.40;99.90
1129;DHT22;553;51.038;7.216;2023-02-22T04:34:58;6.30;99.90
1129;DHT22;553;51.038;7.216;2023-02-22T04:37:27;6.30;99.90
1129;DHT22;553;51.038;7.216;2023-02-22T04:39:54;6.30;99.90
1129;DHT22;553;51.038;7.216;2023-02-22T04:42:21;6.30;99.90
1129;DHT22;553;51.038;7.216;2023-02-22T04:44:47;6.30;99.90
1129;DHT22;553;51.038;7.216;2023-02-22T04:47:14;6.30;99.90
1129;DHT22;553;51.038;7.216;2023-02-22T04:49:41;6.30;99.90
1129;DHT22;553;51.038;7.216;2023-02-22T04:52:08;6.30;99.90
1129;DHT22;553;51.038;7.216;2023-02-22T04:54:37;6.30;99.90
1129;DHT22;553;51.038;7.216;2023-02-22T04:57:03;6.20;99.90
1129;DHT22;553;51.038;7.216;2023-02-22T04:59:32;6.20;99.90
1129;DHT22;553;51.038;7.216;2023-02-22T05:02:00;6.20;99.90
1129;DHT22;553;51.038;7.216;2023-02-22T05:04:26;6.30;99.90
1129;DHT22;553;51.038;7.216;2023-02-22T05:06:53;6.20;99.90
1129;DHT22;553;51.038;7.216;2023-02-22T05:09:20;6.20;99.90
1129;DHT22;553;51.038;7.216;2023-02-22T05:11:47;6.30;99.90
1129;DHT22;553;51.038;7.216;2023-02-22T05:14:14;6.30;99.90
1129;DHT22;553;51.038;7.216;2023-02-22T05:16:41;6.20;99.90
1129;DHT22;553;51.038;7.216;2023-02-22T05:19:08;6.30;99.90
1129;DHT22;553;51.038;7.216;2023-02-22T05:21:34;6.40;99.90
1129;DHT22;553;51.038;7.216;2023-02-22T05:24:01;6.40;99.90
1129;DHT22;553;51.038;7.216;2023-02-22T05:26:28;6.50;99.90
1129;DHT22;553;51.038;7.216;2023-02-22T05:28:55;6.50;99.90
1129;DHT22;553;51.038;7.216;2023-02-22T05:31:21;6.50;99.90
1129;DHT22;553;51.038;7.216;2023-02-22T05:33:48;6.30;99.90
1129;DHT22;553;51.038;7.216;2023-02-22T05:36:15;6.30;99.90
1129;DHT22;553;51.038;7.216;2023-02-22T05:38:42;6.40;99.90
1129;DHT22;553;51.038;7.216;2023-02-22T05:41:12;6.40;99.90
1129;DHT22;553;51.038;7.216;2023-02-22T05:43:39;6.40;99.90
1129;DHT22;553;51.038;7.216;2023-02-22T05:46:06;6.30;99.90
1129;DHT22;553;51.038;7.216;2023-02-22T05:48:33;6.20;99.90
1129;DHT22;553;51.038;7.216;2023-02-22T05:51:00;6.20;99.90
1129;DHT22;553;51.038;7.216;2023-02-22T05:53:27;6.10;99.90
1129;DHT22;553;51.038;7.216;2023-02-22T05:55:53;6.20;99.90
1129;DHT22;553;51.038;7.216;2023-02-22T05:58:21;6.40;99.90
1129;DHT22;553;51.038;7.216;2023-02-22T06:00:47;6.40;99.90
1129;DHT22;553;51.038;7.216;2023-02-22T06:03:14;6.50;99.90
1129;DHT22;553;51.038;7.216;2023-02-22T06:05:41;6.50;99.90
1129;DHT22;553;51.038;7.216;2023-02-22T06:08:08;6.50;99.90
1129;DHT22;553;51.038;7.216;2023-02-22T06:10:35;6.50;99.90
1129;DHT22;553;51.038;7.216;2023-02-22T06:13:03;6.50;99.90
1129;DHT22;553;51.038;7.216;2023-02-22T06:15:30;6.50;99.90
1129;DHT22;553;51.038;7.216;2023-02-22T06:17:57;6.50;99.90
1129;DHT22;553;51.038;7.216;2023-02-22T06:20:27;6.40;99.90
1129;DHT22;553;51.038;7.216;2023-02-22T06:22:55;6.30;99.90
1129;DHT22;553;51.038;7.216;2023-02-22T06:25:25;6.40;99.90
1129;DHT22;553;51.038;7.216;2023-02-22T06:27:52;6.40;99.90
1129;DHT22;553;51.038;7.216;2023-02-22T06:30:22;6.30;99.90
1129;DHT22;553;51.038;7.216;2023-02-22T06:32:49;6.20;99.90
1129;DHT22;553;51.038;7.216;2023-02-22T06:35:16;6.30;99.90
1129;DHT22;553;51.038;7.216;2023-02-22T06:37:44;6.30;99.90
1129;DHT22;553;51.038;7.216;2023-02-22T06:40:12;6.30;99.90
1129;DHT22;553;51.038;7.216;2023-02-22T06:42:39;6.20;99.90
1129;DHT22;553;51.038;7.216;2023-02-22T06:45:06;6.30;99.90
1129;DHT22;553;51.038;7.216;2023-02-22T06:47:37;6.40;99.90
1129;DHT22;553;51.038;7.216;2023-02-22T06:50:05;6.20;99.90
1129;DHT22;553;51.038;7.216;2023-02-22T06:52:32;6.20;99.90
1129;DHT22;553;51.038;7.216;2023-02-22T06:54:59;6.20;99.90
1129;DHT22;553;51.038;7.216;2023-02-22T06:57:25;6.20;99.90
1129;DHT22;553;51.038;7.216;2023-02-22T06:59:52;6.20;99.90
1129;DHT22;553;51.038;7.216;2023-02-22T07:02:19;6.30;99.90
1129;DHT22;553;51.038;7.216;2023-02-22T07:04:46;6.30;99.90
1129;DHT22;553;51.038;7.216;2023-02-22T07:07:12;6.40;99.90
1129;DHT22;553;51.038;7.216;2023-02-22T07:09:39;6.40;99.90
1129;DHT22;553;51.038;7.216;2023-02-22T07:12:06;6.50;99.90
1129;DHT22;553;51.038;7.216;2023-02-22T07:14:33;6.50;99.90
1129;DHT22;553;51.038;7.216;2023-02-22T07:17:00;6.60;99.90
1129;DHT22;553;51.038;7.216;2023-02-22T07:19:27;6.70;99.90
1129;DHT22;553;51.038;7.216;2023-02-22T07:21:54;6.70;99.90
1129;DHT22;553;51.038;7.216;2023-02-22T07:24:25;6.80;99.90
1129;DHT22;553;51.038;7.216;2023-02-22T07:26:53;6.90;99.90
1129;DHT22;553;51.038;7.216;2023-02-22T07:29:20;6.90;99.90
1129;DHT22;553;51.038;7.216;2023-02-22T07:31:48;6.90;99.90
1129;DHT22;553;51.038;7.216;2023-02-22T07:34:15;7.00;99.90
1129;DHT22;553;51.038;7.216;2023-02-22T07:36:41;7.00;99.90
1129;DHT22;553;51.038;7.216;2023-02-22T07:39:08;7.00;99.90
1129;DHT22;553;51.038;7.216;2023-02-22T07:41:35;7.10;99.90
1129;DHT22;553;51.038;7.216;2023-02-22T07:44:10;7.10;99.90
1129;DHT22;553;51.038;7.216;2023-02-22T07:46:38;7.20;99.90
1129;DHT22;553;51.038;7.216;2023-02-22T07:49:05;7.20;99.90
1129;DHT22;553;51.038;7.216;2023-02-22T07:51:31;7.30;99.90
1129;DHT22;553;51.038;7.216;2023-02-22T07:53:58;7.30;99.90
1129;DHT22;553;51.038;7.216;2023-02-22T07:56:25;7.40;99.90
1129;DHT22;553;51.038;7.216;2023-02-22T07:58:51;7.40;99.90
1129;DHT22;553;51.038;7.216;2023-02-22T08:01:18;7.50;99.90
1129;DHT22;553;51.038;7.216;2023-02-22T08:03:45;7.50;99.90
1129;DHT22;553;51.038;7.216;2023-02-22T08:06:13;7.60;99.90
1129;DHT22;553;51.038;7.216;2023-02-22T08:08:39;7.70;99.90
1129;DHT22;553;51.038;7.216;2023-02-22T08:11:06;7.70;99.90
1129;DHT22;553;51.038;7.216;2023-02-22T08:13:33;7.80;99.90
1129;DHT22;553;51.038;7.216;2023-02-22T08:16:02;7.80;99.90
1129;DHT22;553;51.038;7.216;2023-02-22T08:18:29;7.90;99.90
1129;DHT22;553;51.038;7.216;2023-02-22T08:20:56;8.00;99.90
1129;DHT22;553;51.038;7.216;2023-02-22T08:23:25;8.10;99.90
1129;DHT22;553;51.038;7.216;2023-02-22T08:25:52;8.10;99.90
1129;DHT22;553;51.038;7.216;2023-02-22T08:28:21;8.20;99.90
1129;DHT22;553;51.038;7.216;2023-02-22T08:30:49;8.30;99.90
1129;DHT22;553;51.038;7.216;2023-02-22T08:33:16;8.40;99.90
1129;DHT22;553;51.038;7.216;2023-02-22T08:35:46;8.50;99.90
1129;DHT22;553;51.038;7.216;2023-02-22T08:38:21;8.60;99.90
1129;DHT22;553;51.038;7.216;2023-02-22T08:40:48;8.80;99.90
1129;DHT22;553;51.038;7.216;2023-02-22T08:43:16;8.90;99.90
1129;DHT22;553;51.038;7.216;2023-02-22T08:45:43;9.00;99.90
1129;DHT22;553;51.038;7.216;2023-02-22T08:48:11;9.00;99.90
1129;DHT22;553;51.038;7.216;2023-02-22T08:50:39;9.20;99.90
1129;DHT22;553;51.038;7.216;2023-02-22T08:53:08;9.30;99.90
1129;DHT22;553;51.038;7.216;2023-02-22T08:55:37;9.50;99.90
1129;DHT22;553;51.038;7.216;2023-02-22T08:58:05;9.60;99.90
1129;DHT22;553;51.038;7.216;2023-02-22T09:00:35;9.80;99.90
1129;DHT22;553;51.038;7.216;2023-02-22T09:03:06;9.90;99.90
1129;DHT22;553;51.038;7.216;2023-02-22T09:05:33;10.00;99.90
1129;DHT22;553;51.038;7.216;2023-02-22T09:08:00;10.10;99.90
1129;DHT22;553;51.038;7.216;2023-02-22T09:10:30;10.10;99.90
1129;DHT22;553;51.038;7.216;2023-02-22T09:12:57;10.10;99.90
1129;DHT22;553;51.038;7.216;2023-02-22T09:15:27;10.30;99.90
1129;DHT22;553;51.038;7.216;2023-02-22T09:17:54;10.40;99.90
1129;DHT22;553;51.038;7.216;2023-02-22T09:20:22;10.60;99.90
1129;DHT22;553;51.038;7.216;2023-02-22T09:22:49;10.70;99.90
1129;DHT22;553;51.038;7.216;2023-02-22T09:25:17;10.70;99.90
1129;DHT22;553;51.038;7.216;2023-02-22T09:27:48;10.80;99.90
1129;DHT22;553;51.038;7.216;2023-02-22T09:30:17;10.80;99.90
1129;DHT22;553;51.038;7.216;2023-02-22T09:32:44;10.90;99.90
1129;DHT22;553;51.038;7.216;2023-02-22T09:35:11;10.90;99.90
1129;DHT22;553;51.038;7.216;2023-02-22T09:37:38;11.00;99.90
1129;DHT22;553;51.038;7.216;2023-02-22T09:40:05;11.10;99.90
1129;DHT22;553;51.038;7.216;2023-02-22T09:42:42;11.10;99.90
1129;DHT22;553;51.038;7.216;2023-02-22T09:45:23;11.20;99.90
1129;DHT22;553;51.038;7.216;2023-02-22T09:47:57;11.30;99.90
1129;DHT22;553;51.038;7.216;2023-02-22T09:50:42;11.20;99.90
1129;DHT22;553;51.038;7.216;2023-02-22T09:53:24;11.30;99.90
1129;DHT22;553;51.038;7.216;2023-02-22T09:56:03;11.30;99.90
1129;DHT22;553;51.038;7.216;2023-02-22T09:58:34;11.40;99.90
1129;DHT22;553;51.038;7.216;2023-02-22T10:04:10;11.50;99.90
1129;DHT22;553;51.038;7.216;2023-02-22T10:06:48;11.60;99.90
1129;DHT22;553;51.038;7.216;2023-02-22T10:09:18;11.60;99.90
1129;DHT22;553;51.038;7.216;2023-02-22T10:11:54;11.70;99.90
1129;DHT22;553;51.038;7.216;2023-02-22T10:19:59;11.80;99.90
1129;DHT22;553;51.038;7.216;2023-02-22T10:25:17;12.20;99.90
1129;DHT22;553;51.038;7.216;2023-02-22T10:27:51;12.30;99.10
1129;DHT22;553;51.038;7.216;2023-02-22T10:30:29;12.30;98.60
1129;DHT22;553;51.038;7.216;2023-02-22T10:33:19;12.50;98.50
1129;DHT22;553;51.038;7.216;2023-02-22T10:35:47;12.60;98.10
1129;DHT22;553;51.038;7.216;2023-02-22T10:40:55;12.70;97.20
1129;DHT22;553;51.038;7.216;2023-02-22T10:43:24;12.80;96.60
1129;DHT22;553;51.038;7.216;2023-02-22T10:45:54;13.00;96.20
1129;DHT22;553;51.038;7.216;2023-02-22T10:48:23;13.10;95.90
1129;DHT22;553;51.038;7.216;2023-02-22T10:50:55;13.10;95.50
1129;DHT22;553;51.038;7.216;2023-02-22T10:53:25;13.10;94.30
1129;DHT22;553;51.038;7.216;2023-02-22T10:56:15;13.10;94.60
1129;DHT22;553;51.038;7.216;2023-02-22T11:01:43;13.30;93.30
1129;DHT22;553;51.038;7.216;2023-02-22T11:04:19;13.40;93.70
1129;DHT22;553;51.038;7.216;2023-02-22T11:09:45;13.80;92.90
1129;DHT22;553;51.038;7.216;2023-02-22T11:12:25;13.80;92.50
1129;DHT22;553;51.038;7.216;2023-02-22T11:14:53;13.80;92.50
1129;DHT22;553;51.038;7.216;2023-02-22T11:17:28;14.00;92.50
1129;DHT22;553;51.038;7.216;2023-02-22T11:19:56;14.00;91.60
1129;DHT22;553;51.038;7.216;2023-02-22T11:22:26;14.10;91.80
1129;DHT22;553;51.038;7.216;2023-02-22T11:25:01;14.10;90.20
1129;DHT22;553;51.038;7.216;2023-02-22T11:27:43;14.10;90.10
1129;DHT22;553;51.038;7.216;2023-02-22T11:30:28;14.10;91.10
1129;DHT22;553;51.038;7.216;2023-02-22T11:35:53;14.10;90.30
1129;DHT22;553;51.038;7.216;2023-02-22T11:38:40;14.10;91.10
1129;DHT22;553;51.038;7.216;2023-02-22T11:41:25;14.20;92.00
1129;DHT22;553;51.038;7.216;2023-02-22T11:43:53;14.30;90.60
1129;DHT22;553;51.038;7.216;2023-02-22T11:46:26;14.40;91.40
1129;DHT22;553;51.038;7.216;2023-02-22T11:49:10;14.50;89.80
1129;DHT22;553;51.038;7.216;2023-02-22T11:54:48;14.60;89.80
1129;DHT22;553;51.038;7.216;2023-02-22T12:03:06;14.90;88.30
1129;DHT22;553;51.038;7.216;2023-02-22T12:11:16;14.70;89.20
1129;DHT22;553;51.038;7.216;2023-02-22T12:25:05;14.70;86.90
1129;DHT22;553;51.038;7.216;2023-02-22T12:27:40;15.00;87.90
1129;DHT22;553;51.038;7.216;2023-02-22T12:30:19;15.00;87.10
1129;DHT22;553;51.038;7.216;2023-02-22T12:32:54;15.00;87.90
1129;DHT22;553;51.038;7.216;2023-02-22T12:35:27;15.00;88.10
1129;DHT22;553;51.038;7.216;2023-02-22T12:43:40;15.30;87.10
1129;DHT22;553;51.038;7.216;2023-02-22T12:46:17;15.30;85.90
1129;DHT22;553;51.038;7.216;2023-02-22T12:51:38;15.30;85.80
1129;DHT22;553;51.038;7.216;2023-02-22T13:02:19;15.60;86.50
1129;DHT22;553;51.038;7.216;2023-02-22T13:04:48;15.60;86.50
1129;DHT22;553;51.038;7.216;2023-02-22T13:07:25;15.60;87.20
1129;DHT22;553;51.038;7.216;2023-02-22T13:21:15;15.10;86.20
1129;DHT22;553;51.038;7.216;2023-02-22T13:23:53;15.00;86.60
1129;DHT22;553;51.038;7.216;2023-02-22T13:26:37;15.00;87.80
1129;DHT22;553;51.038;7.216;2023-02-22T13:29:27;14.90;87.70
1129;DHT22;553;51.038;7.216;2023-02-22T13:32:12;14.80;88.30
1129;DHT22;553;51.038;7.216;2023-02-22T13:35:19;14.80;86.90
1129;DHT22;553;51.038;7.216;2023-02-22T13:46:11;14.20;89.10
1129;DHT22;553;51.038;7.216;2023-02-22T13:48:55;14.20;88.90
1129;DHT22;553;51.038;7.216;2023-02-22T13:51:54;14.20;88.60
1129;DHT22;553;51.038;7.216;2023-02-22T13:54:41;14.30;88.20
1129;DHT22;553;51.038;7.216;2023-02-22T13:57:22;14.20;88.70
1129;DHT22;553;51.038;7.216;2023-02-22T14:10:44;14.30;89.10
1129;DHT22;553;51.038;7.216;2023-02-22T14:13:13;14.30;88.80
1129;DHT22;553;51.038;7.216;2023-02-22T14:18:39;14.30;88.50
1129;DHT22;553;51.038;7.216;2023-02-22T14:21:09;14.30;89.50
1129;DHT22;553;51.038;7.216;2023-02-22T14:23:38;14.30;89.20
1129;DHT22;553;51.038;7.216;2023-02-22T14:26:22;14.30;88.80
1129;DHT22;553;51.038;7.216;2023-02-22T14:28:59;14.30;90.20
1129;DHT22;553;51.038;7.216;2023-02-22T14:36:49;14.40;89.40
1129;DHT22;553;51.038;7.216;2023-02-22T14:42:33;14.60;88.70
1129;DHT22;553;51.038;7.216;2023-02-22T14:45:09;14.80;89.10
1129;DHT22;553;51.038;7.216;2023-02-22T14:47:49;14.80;88.40
1129;DHT22;553;51.038;7.216;2023-02-22T14:50:36;14.80;87.90
1129;DHT22;553;51.038;7.216;2023-02-22T14:53:18;14.80;88.20
1129;DHT22;553;51.038;7.216;2023-02-22T14:56:00;14.80;87.60
1129;DHT22;553;51.038;7.216;2023-02-22T15:03:45;14.80;88.70
1129;DHT22;553;51.038;7.216;2023-02-22T15:06:21;14.70;89.10
1129;DHT22;553;51.038;7.216;2023-02-22T15:09:05;14.60;89.70
1129;DHT22;553;51.038;7.216;2023-02-22T15:11:32;14.60;90.80
1129;DHT22;553;51.038;7.216;2023-02-22T15:14:00;14.70;90.40
1129;DHT22;553;51.038;7.216;2023-02-22T15:16:32;14.70;90.20
1129;DHT22;553;51.038;7.216;2023-02-22T15:19:04;14.60;90.20
1129;DHT22;553;51.038;7.216;2023-02-22T15:21:33;14.70;90.90
1129;DHT22;553;51.038;7.216;2023-02-22T15:24:05;14.70;91.00
1129;DHT22;553;51.038;7.216;2023-02-22T15:26:40;14.80;90.70
1129;DHT22;553;51.038;7.216;2023-02-22T15:29:28;14.70;90.20
1129;DHT22;553;51.038;7.216;2023-02-22T15:31:58;14.60;90.20
1129;DHT22;553;51.038;7.216;2023-02-22T15:34:30;14.60;91.20
1129;DHT22;553;51.038;7.216;2023-02-22T15:37:17;14.60;90.60
1129;DHT22;553;51.038;7.216;2023-02-22T15:39:44;14.50;90.90
1129;DHT22;553;51.038;7.216;2023-02-22T15:42:15;14.40;91.40
1129;DHT22;553;51.038;7.216;2023-02-22T15:44:48;14.40;91.90
1129;DHT22;553;51.038;7.216;2023-02-22T15:47:35;14.40;92.20
1129;DHT22;553;51.038;7.216;2023-02-22T15:55:31;14.40;93.10
1129;DHT22;553;51.038;7.216;2023-02-22T15:58:22;14.40;93.40
1129;DHT22;553;51.038;7.216;2023-02-22T16:03:25;15.90;88.50
1129;DHT22;553;51.038;7.216;2023-02-22T16:05:55;15.60;89.90
1129;DHT22;553;51.038;7.216;2023-02-22T16:08:34;15.40;89.80
1129;DHT22;553;51.038;7.216;2023-02-22T16:11:33;15.10;89.60
1129;DHT22;553;51.038;7.216;2023-02-22T16:14:03;14.90;91.40
1129;DHT22;553;51.038;7.216;2023-02-22T16:16:36;14.70;91.90
1129;DHT22;553;51.038;7.216;2023-02-22T16:19:30;14.60;92.60
1129;DHT22;553;51.038;7.216;2023-02-22T16:22:01;14.50;94.30
1129;DHT22;553;51.038;7.216;2023-02-22T16:24:31;14.40;94.80
1129;DHT22;553;51.038;7.216;2023-02-22T16:29:31;14.40;94.60
1129;DHT22;553;51.038;7.216;2023-02-22T16:31:58;14.20;95.40
1129;DHT22;553;51.038;7.216;2023-02-22T16:34:25;14.10;96.20
1129;DHT22;553;51.038;7.216;2023-02-22T16:36:51;14.10;96.40
1129;DHT22;553;51.038;7.216;2023-02-22T16:39:25;14.00;96.40
1129;DHT22;553;51.038;7.216;2023-02-22T16:41:55;14.00;96.10
1129;DHT22;553;51.038;7.216;2023-02-22T16:44:23;13.90;96.10
1129;DHT22;553;51.038;7.216;2023-02-22T16:46:51;13.80;96.20
1129;DHT22;553;51.038;7.216;2023-02-22T16:49:18;13.80;96.80
1129;DHT22;553;51.038;7.216;2023-02-22T16:51:54;13.80;96.90
1129;DHT22;553;51.038;7.216;2023-02-22T16:54:27;13.70;96.50
1129;DHT22;553;51.038;7.216;2023-02-22T16:56:56;13.60;97.00
1129;DHT22;553;51.038;7.216;2023-02-22T16:59:25;13.60;97.60
1129;DHT22;553;51.038;7.216;2023-02-22T17:01:52;13.60;97.30
1129;DHT22;553;51.038;7.216;2023-02-22T17:04:22;13.50;97.50
1129;DHT22;553;51.038;7.216;2023-02-22T17:06:50;13.50;97.20
1129;DHT22;553;51.038;7.216;2023-02-22T17:09:17;13.30;97.40
1129;DHT22;553;51.038;7.216;2023-02-22T17:11:49;13.20;98.30
1129;DHT22;553;51.038;7.216;2023-02-22T17:14:19;13.10;98.70
1129;DHT22;553;51.038;7.216;2023-02-22T17:16:49;13.00;99.00
1129;DHT22;553;51.038;7.216;2023-02-22T17:19:19;13.00;98.60
1129;DHT22;553;51.038;7.216;2023-02-22T17:21:47;13.00;99.20
1129;DHT22;553;51.038;7.216;2023-02-22T17:24:17;12.90;98.90
1129;DHT22;553;51.038;7.216;2023-02-22T17:26:46;12.90;99.10
1129;DHT22;553;51.038;7.216;2023-02-22T17:29:12;12.90;99.50
1129;DHT22;553;51.038;7.216;2023-02-22T17:31:40;12.90;98.80
1129;DHT22;553;51.038;7.216;2023-02-22T17:34:07;12.80;98.90
1129;DHT22;553;51.038;7.216;2023-02-22T17:36:35;12.70;98.70
1129;DHT22;553;51.038;7.216;2023-02-22T17:39:03;12.70;99.10
1129;DHT22;553;51.038;7.216;2023-02-22T17:41:30;12.70;99.00
1129;DHT22;553;51.038;7.216;2023-02-22T17:43:57;12.70;99.00
1129;DHT22;553;51.038;7.216;2023-02-22T17:46:24;12.60;99.60
1129;DHT22;553;51.038;7.216;2023-02-22T17:48:51;12.60;99.70
1129;DHT22;553;51.038;7.216;2023-02-22T17:51:24;12.60;99.80
1129;DHT22;553;51.038;7.216;2023-02-22T17:53:51;12.50;99.70
1129;DHT22;553;51.038;7.216;2023-02-22T17:56:18;12.50;99.90
1129;DHT22;553;51.038;7.216;2023-02-22T17:58:48;12.40;99.80
1129;DHT22;553;51.038;7.216;2023-02-22T18:01:29;12.40;99.80
1129;DHT22;553;51.038;7.216;2023-02-22T18:03:59;12.30;99.90
1129;DHT22;553;51.038;7.216;2023-02-22T18:06:27;12.20;99.90
1129;DHT22;553;51.038;7.216;2023-02-22T18:08:56;12.20;99.90
1129;DHT22;553;51.038;7.216;2023-02-22T18:11:25;12.20;99.90
1129;DHT22;553;51.038;7.216;2023-02-22T18:13:53;12.10;99.90
1129;DHT22;553;51.038;7.216;2023-02-22T18:16:21;12.20;99.90
1129;DHT22;553;51.038;7.216;2023-02-22T18:18:48;12.10;99.90
1129;DHT22;553;51.038;7.216;2023-02-22T18:21:15;12.20;99.90
1129;DHT22;553;51.038;7.216;2023-02-22T18:23:42;12.10;99.90
1129;DHT22;553;51.038;7.216;2023-02-22T18:26:17;12.10;99.90
1129;DHT22;553;51.038;7.216;2023-02-22T18:28:45;12.00;99.90
1129;DHT22;553;51.038;7.216;2023-02-22T18:31:16;11.80;99.90
1129;DHT22;553;51.038;7.216;2023-02-22T18:33:45;11.80;99.90
1129;DHT22;553;51.038;7.216;2023-02-22T18:36:13;11.90;99.90
1129;DHT22;553;51.038;7.216;2023-02-22T18:38:41;11.90;99.90
1129;DHT22;553;51.038;7.216;2023-02-22T18:41:14;11.90;99.90
1129;DHT22;553;51.038;7.216;2023-02-22T18:43:42;11.80;99.90
1129;DHT22;553;51.038;7.216;2023-02-22T18:46:13;11.70;99.90
1129;DHT22;553;51.038;7.216;2023-02-22T18:48:40;11.70;99.90
1129;DHT22;553;51.038;7.216;2023-02-22T18:51:09;11.70;99.90
1129;DHT22;553;51.038;7.216;2023-02-22T18:53:37;11.70;99.90
1129;DHT22;553;51.038;7.216;2023-02-22T18:56:07;11.70;99.90
1129;DHT22;553;51.038;7.216;2023-02-22T18:58:35;11.80;99.90
1129;DHT22;553;51.038;7.216;2023-02-22T19:01:03;11.80;99.90
1129;DHT22;553;51.038;7.216;2023-02-22T19:03:31;11.80;99.90
1129;DHT22;553;51.038;7.216;2023-02-22T19:06:01;11.80;99.90
1129;DHT22;553;51.038;7.216;2023-02-22T19:08:29;11.70;99.90
1129;DHT22;553;51.038;7.216;2023-02-22T19:11:24;11.70;99.90
1129;DHT22;553;51.038;7.216;2023-02-22T19:13:52;11.70;99.90
1129;DHT22;553;51.038;7.216;2023-02-22T19:16:21;11.70;99.90
1129;DHT22;553;51.038;7.216;2023-02-22T19:18:50;11.70;99.90
1129;DHT22;553;51.038;7.216;2023-02-22T19:21:18;11.80;99.90
1129;DHT22;553;51.038;7.216;2023-02-22T19:23:47;11.70;99.90
1129;DHT22;553;51.038;7.216;2023-02-22T19:26:22;11.70;99.90